createdAt,value
2018-11-03T00:00:41.498Z,1005.93
2018-11-03T00:01:41.472Z,1005.88
2018-11-03T00:02:41.457Z,1005.89
2018-11-03T00:03:41.427Z,1005.92
2018-11-03T00:04:41.405Z,1005.89
2018-11-03T00:05:41.386Z,1005.91
2018-11-03T00:06:41.363Z,1005.92
2018-11-03T00:07:41.335Z,1005.96
2018-11-03T00:08:41.319Z,1005.94
2018-11-03T00:09:41.293Z,1005.95
2018-11-03T00:10:41.270Z,1005.93
2018-11-03T00:11:41.242Z,1005.99
2018-11-03T00:12:41.220Z,1005.94
2018-11-03T00:13:41.198Z,1005.95
2018-11-03T00:14:41.195Z,1005.95
2018-11-03T00:15:41.154Z,1005.98
2018-11-03T00:16:41.128Z,1005.97
2018-11-03T00:17:41.102Z,1005.97
2018-11-03T00:18:41.070Z,1006.00
2018-11-03T00:19:41.054Z,1005.99
2018-11-03T00:20:41.029Z,1005.99
2018-11-03T00:21:41.007Z,1005.99
2018-11-03T00:22:40.994Z,1006.00
2018-11-03T00:23:40.962Z,1005.97
2018-11-03T00:24:40.952Z,1005.96
2018-11-03T00:25:40.914Z,1005.95
2018-11-03T00:26:40.891Z,1005.95
2018-11-03T00:27:40.866Z,1005.98
2018-11-03T00:28:40.844Z,1006.00
2018-11-03T00:29:40.830Z,1006.02
2018-11-03T00:30:40.798Z,1006.05
2018-11-03T00:31:40.785Z,1006.06
2018-11-03T00:32:40.753Z,1006.01
2018-11-03T00:33:40.727Z,1006.04
2018-11-03T00:34:40.715Z,1006.04
2018-11-03T00:35:40.676Z,1006.09
2018-11-03T00:36:40.657Z,1006.07
2018-11-03T00:37:40.644Z,1006.11
2018-11-03T00:38:40.635Z,1006.07
2018-11-03T00:39:40.584Z,1006.07
2018-11-03T00:40:40.680Z,1006.03
2018-11-03T00:41:40.543Z,1006.03
2018-11-03T00:42:40.547Z,1006.07
2018-11-03T00:43:40.495Z,1006.08
2018-11-03T00:44:40.469Z,1006.09
2018-11-03T00:45:40.444Z,1006.11
2018-11-03T00:46:40.423Z,1006.09
2018-11-03T00:47:40.395Z,1006.08
2018-11-03T00:48:40.376Z,1006.12
2018-11-03T00:49:40.353Z,1006.13
2018-11-03T00:50:40.331Z,1006.12
2018-11-03T00:51:40.311Z,1006.15
2018-11-03T00:52:40.274Z,1006.18
2018-11-03T00:53:40.257Z,1006.22
2018-11-03T00:54:40.239Z,1006.23
2018-11-03T00:55:40.250Z,1006.22
2018-11-03T00:56:40.186Z,1006.22
2018-11-03T00:57:40.157Z,1006.20
2018-11-03T00:58:40.144Z,1006.18
2018-11-03T00:59:40.109Z,1006.11
2018-11-03T01:00:40.090Z,1006.10
2018-11-03T01:01:40.071Z,1006.06
2018-11-03T01:02:40.042Z,1006.08
2018-11-03T01:03:40.021Z,1006.03
2018-11-03T01:04:39.997Z,1006.05
2018-11-03T01:05:39.977Z,1006.09
2018-11-03T01:06:39.945Z,1006.13
2018-11-03T01:07:39.933Z,1006.16
2018-11-03T01:08:39.910Z,1006.20
2018-11-03T01:09:39.875Z,1006.21
2018-11-03T01:10:39.855Z,1006.24
2018-11-03T01:11:39.842Z,1006.24
2018-11-03T01:12:39.814Z,1006.23
2018-11-03T01:13:39.785Z,1006.21
2018-11-03T01:14:39.763Z,1006.20
2018-11-03T01:15:39.744Z,1006.17
2018-11-03T01:16:39.719Z,1006.11
2018-11-03T01:17:39.701Z,1006.08
2018-11-03T01:18:39.669Z,1006.06
2018-11-03T01:19:39.647Z,1006.05
2018-11-03T01:20:39.618Z,1005.98
2018-11-03T01:21:39.600Z,1006.02
2018-11-03T01:22:39.583Z,1006.01
2018-11-03T01:23:39.685Z,1005.99
2018-11-03T01:24:39.529Z,1005.97
2018-11-03T01:25:39.506Z,1005.98
2018-11-03T01:26:39.480Z,1005.97
2018-11-03T01:27:39.473Z,1005.97
2018-11-03T01:28:39.438Z,1005.94
2018-11-03T01:29:40.100Z,1005.99
2018-11-03T01:30:39.402Z,1005.97
2018-11-03T01:31:39.367Z,1005.96
2018-11-03T01:32:39.433Z,1005.97
2018-11-03T01:33:39.338Z,1005.97
2018-11-03T01:34:39.300Z,1005.99
2018-11-03T01:35:39.272Z,1005.97
2018-11-03T01:36:39.251Z,1005.97
2018-11-03T01:37:39.251Z,1005.95
2018-11-03T01:38:39.204Z,1005.94
2018-11-03T01:39:39.181Z,1005.89
2018-11-03T01:40:39.162Z,1005.85
2018-11-03T01:41:39.136Z,1005.86
2018-11-03T01:42:39.123Z,1005.83
2018-11-03T01:43:39.105Z,1005.84
2018-11-03T01:44:39.069Z,1005.89
2018-11-03T01:45:39.044Z,1005.89
2018-11-03T01:46:39.033Z,1005.89
2018-11-03T01:47:39.001Z,1005.92
2018-11-03T01:48:38.973Z,1005.94
2018-11-03T01:49:38.980Z,1005.95
2018-11-03T01:50:38.929Z,1005.95
2018-11-03T01:51:38.900Z,1005.99
2018-11-03T01:52:38.884Z,1006.00
2018-11-03T01:53:38.868Z,1006.01
2018-11-03T01:54:38.831Z,1006.02
2018-11-03T01:55:38.819Z,1006.03
2018-11-03T01:56:38.786Z,1006.02
2018-11-03T01:57:38.770Z,1006.04
2018-11-03T01:58:38.741Z,1006.07
2018-11-03T01:59:38.719Z,1006.06
2018-11-03T02:00:38.700Z,1006.06
2018-11-03T02:01:38.674Z,1006.05
2018-11-03T02:02:38.654Z,1006.05
2018-11-03T02:03:38.630Z,1006.03
2018-11-03T02:04:38.611Z,1006.04
2018-11-03T02:05:38.579Z,1005.99
2018-11-03T02:06:38.566Z,1005.99
2018-11-03T02:07:38.527Z,1006.00
2018-11-03T02:08:38.516Z,1005.95
2018-11-03T02:09:38.509Z,1006.00
2018-11-03T02:10:38.470Z,1006.01
2018-11-03T02:11:38.445Z,1005.98
2018-11-03T02:12:38.427Z,1005.99
2018-11-03T02:13:38.400Z,1005.99
2018-11-03T02:14:38.400Z,1006.00
2018-11-03T02:15:38.350Z,1005.99
2018-11-03T02:16:38.331Z,1005.99
2018-11-03T02:17:38.334Z,1005.98
2018-11-03T02:18:38.277Z,1005.98
2018-11-03T02:19:38.274Z,1006.00
2018-11-03T02:20:38.260Z,1006.01
2018-11-03T02:21:38.227Z,1006.00
2018-11-03T02:22:38.196Z,1006.04
2018-11-03T02:23:38.182Z,1006.01
2018-11-03T02:24:38.157Z,1006.04
2018-11-03T02:25:38.125Z,1006.00
2018-11-03T02:26:38.103Z,1005.99
2018-11-03T02:27:38.081Z,1006.00
2018-11-03T02:28:38.054Z,1005.99
2018-11-03T02:29:38.030Z,1006.01
2018-11-03T02:30:38.012Z,1006.04
2018-11-03T02:31:37.986Z,1006.02
2018-11-03T02:32:37.974Z,1006.06
2018-11-03T02:33:37.940Z,1006.02
2018-11-03T02:34:37.928Z,1006.02
2018-11-03T02:35:37.893Z,1006.03
2018-11-03T02:36:37.876Z,1006.05
2018-11-03T02:37:37.852Z,1006.10
2018-11-03T02:38:37.828Z,1006.10
2018-11-03T02:39:37.806Z,1006.04
2018-11-03T02:40:37.783Z,1006.06
2018-11-03T02:41:37.764Z,1006.03
2018-11-03T02:42:37.728Z,1006.03
2018-11-03T02:43:37.712Z,1006.01
2018-11-03T02:44:37.688Z,1006.01
2018-11-03T02:45:37.677Z,1006.03
2018-11-03T02:46:37.643Z,1006.01
2018-11-03T02:47:37.613Z,1006.07
2018-11-03T02:48:37.603Z,1006.10
2018-11-03T02:49:37.588Z,1006.10
2018-11-03T02:50:37.550Z,1006.13
2018-11-03T02:51:37.533Z,1006.12
2018-11-03T02:52:37.508Z,1006.15
2018-11-03T02:53:37.479Z,1006.17
2018-11-03T02:54:37.458Z,1006.18
2018-11-03T02:55:37.437Z,1006.17
2018-11-03T02:56:37.412Z,1006.16
2018-11-03T02:57:37.390Z,1006.18
2018-11-03T02:58:37.379Z,1006.14
2018-11-03T02:59:37.344Z,1006.18
2018-11-03T03:00:37.354Z,1006.13
2018-11-03T03:01:37.329Z,1006.16
2018-11-03T03:02:37.274Z,1006.11
2018-11-03T03:03:37.268Z,1006.09
2018-11-03T03:04:37.256Z,1006.10
2018-11-03T03:05:37.212Z,1006.02
2018-11-03T03:06:37.180Z,1006.06
2018-11-03T03:07:37.161Z,1006.05
2018-11-03T03:08:37.142Z,1006.03
2018-11-03T03:09:37.116Z,1006.01
2018-11-03T03:10:37.103Z,1006.02
2018-11-03T03:11:37.255Z,1006.01
2018-11-03T03:12:37.055Z,1005.99
2018-11-03T03:13:37.032Z,1005.98
2018-11-03T03:14:37.022Z,1005.99
2018-11-03T03:15:36.980Z,1006.01
2018-11-03T03:16:36.958Z,1005.98
2018-11-03T03:17:36.940Z,1005.99
2018-11-03T03:18:36.913Z,1006.01
2018-11-03T03:19:36.888Z,1006.02
2018-11-03T03:20:36.865Z,1006.02
2018-11-03T03:21:36.843Z,1006.03
2018-11-03T03:22:36.817Z,1006.03
2018-11-03T03:23:36.797Z,1006.03
2018-11-03T03:24:36.786Z,1006.07
2018-11-03T03:25:36.776Z,1006.03
2018-11-03T03:26:36.727Z,1006.05
2018-11-03T03:27:36.708Z,1006.08
2018-11-03T03:28:36.713Z,1006.04
2018-11-03T03:29:36.685Z,1006.13
2018-11-03T03:30:36.636Z,1006.09
2018-11-03T03:31:36.625Z,1006.10
2018-11-03T03:32:36.616Z,1006.12
2018-11-03T03:33:36.577Z,1006.11
2018-11-03T03:34:36.544Z,1006.12
2018-11-03T03:35:36.526Z,1006.13
2018-11-03T03:36:36.494Z,1006.15
2018-11-03T03:37:36.484Z,1006.23
2018-11-03T03:38:36.532Z,1006.19
2018-11-03T03:39:36.495Z,1006.21
2018-11-03T03:40:36.422Z,1006.20
2018-11-03T03:41:36.390Z,1006.18
2018-11-03T03:42:36.469Z,1006.21
2018-11-03T03:43:36.340Z,1006.20
2018-11-03T03:44:36.332Z,1006.18
2018-11-03T03:45:36.296Z,1006.20
2018-11-03T03:46:36.268Z,1006.19
2018-11-03T03:47:36.246Z,1006.18
2018-11-03T03:48:36.224Z,1006.20
2018-11-03T03:49:36.201Z,1006.23
2018-11-03T03:50:36.168Z,1006.22
2018-11-03T03:51:36.153Z,1006.22
2018-11-03T03:52:36.121Z,1006.25
2018-11-03T03:53:36.118Z,1006.25
2018-11-03T03:54:36.073Z,1006.24
2018-11-03T03:55:36.055Z,1006.24
2018-11-03T03:56:36.028Z,1006.26
2018-11-03T03:57:36.034Z,1006.27
2018-11-03T03:58:35.989Z,1006.30
2018-11-03T03:59:35.960Z,1006.29
2018-11-03T04:00:35.947Z,1006.32
2018-11-03T04:01:35.915Z,1006.36
2018-11-03T04:02:35.890Z,1006.27
2018-11-03T04:03:35.861Z,1006.34
2018-11-03T04:04:35.832Z,1006.29
2018-11-03T04:05:35.820Z,1006.29
2018-11-03T04:06:35.797Z,1006.31
2018-11-03T04:07:35.790Z,1006.27
2018-11-03T04:08:35.768Z,1006.30
2018-11-03T04:09:35.728Z,1006.27
2018-11-03T04:10:35.698Z,1006.25
2018-11-03T04:11:35.679Z,1006.28
2018-11-03T04:12:35.653Z,1006.29
2018-11-03T04:13:35.631Z,1006.26
2018-11-03T04:14:35.608Z,1006.30
2018-11-03T04:15:35.583Z,1006.31
2018-11-03T04:16:35.569Z,1006.28
2018-11-03T04:17:35.528Z,1006.28
2018-11-03T04:18:35.520Z,1006.24
2018-11-03T04:19:35.507Z,1006.25
2018-11-03T04:20:35.463Z,1006.20
2018-11-03T04:21:35.439Z,1006.24
2018-11-03T04:22:35.439Z,1006.21
2018-11-03T04:23:35.395Z,1006.20
2018-11-03T04:24:35.369Z,1006.19
2018-11-03T04:25:35.338Z,1006.20
2018-11-03T04:26:35.322Z,1006.18
2018-11-03T04:27:35.312Z,1006.15
2018-11-03T04:28:35.271Z,1006.15
2018-11-03T04:29:35.249Z,1006.14
2018-11-03T04:30:35.226Z,1006.19
2018-11-03T04:31:35.208Z,1006.15
2018-11-03T04:32:35.179Z,1006.17
2018-11-03T04:33:35.150Z,1006.18
2018-11-03T04:34:35.159Z,1006.18
2018-11-03T04:35:35.112Z,1006.18
2018-11-03T04:36:35.092Z,1006.20
2018-11-03T04:37:35.076Z,1006.20
2018-11-03T04:38:35.035Z,1006.23
2018-11-03T04:39:35.039Z,1006.22
2018-11-03T04:40:34.990Z,1006.23
2018-11-03T04:41:34.954Z,1006.25
2018-11-03T04:42:34.958Z,1006.23
2018-11-03T04:43:34.906Z,1006.26
2018-11-03T04:44:34.894Z,1006.23
2018-11-03T04:45:34.937Z,1006.21
2018-11-03T04:46:34.837Z,1006.25
2018-11-03T04:47:34.817Z,1006.21
2018-11-03T04:48:34.798Z,1006.19
2018-11-03T04:49:34.775Z,1006.16
2018-11-03T04:50:34.747Z,1006.16
2018-11-03T04:51:34.732Z,1006.14
2018-11-03T04:52:34.716Z,1006.16
2018-11-03T04:53:34.696Z,1006.12
2018-11-03T04:54:34.657Z,1006.08
2018-11-03T04:55:34.680Z,1006.11
2018-11-03T04:56:34.620Z,1006.08
2018-11-03T04:57:34.605Z,1006.10
2018-11-03T04:58:34.563Z,1006.10
2018-11-03T04:59:34.528Z,1006.12
2018-11-03T05:00:34.510Z,1006.10
2018-11-03T05:01:34.477Z,1006.11
2018-11-03T05:02:34.460Z,1006.10
2018-11-03T05:03:34.433Z,1006.08
2018-11-03T05:04:34.404Z,1006.14
2018-11-03T05:05:34.410Z,1006.14
2018-11-03T05:06:34.359Z,1006.14
2018-11-03T05:07:34.346Z,1006.13
2018-11-03T05:08:34.320Z,1006.15
2018-11-03T05:09:34.289Z,1006.16
2018-11-03T05:10:34.348Z,1006.11
2018-11-03T05:11:34.250Z,1006.13
2018-11-03T05:12:34.234Z,1006.15
2018-11-03T05:13:34.224Z,1006.13
2018-11-03T05:14:34.166Z,1006.13
2018-11-03T05:15:34.145Z,1006.16
2018-11-03T05:16:34.122Z,1006.17
2018-11-03T05:17:34.111Z,1006.19
2018-11-03T05:18:34.089Z,1006.20
2018-11-03T05:19:34.061Z,1006.19
2018-11-03T05:20:34.027Z,1006.19
2018-11-03T05:21:34.001Z,1006.19
2018-11-03T05:22:33.972Z,1006.16
2018-11-03T05:23:33.956Z,1006.16
2018-11-03T05:24:33.940Z,1006.15
2018-11-03T05:25:33.937Z,1006.15
2018-11-03T05:26:33.876Z,1006.17
2018-11-03T05:27:33.854Z,1006.17
2018-11-03T05:28:33.848Z,1006.16
2018-11-03T05:29:33.811Z,1006.22
2018-11-03T05:30:33.799Z,1006.22
2018-11-03T05:31:33.794Z,1006.24
2018-11-03T05:32:33.738Z,1006.23
2018-11-03T05:33:33.731Z,1006.24
2018-11-03T05:34:33.684Z,1006.24
2018-11-03T05:35:33.683Z,1006.24
2018-11-03T05:36:33.648Z,1006.25
2018-11-03T05:37:33.618Z,1006.20
2018-11-03T05:38:33.612Z,1006.20
2018-11-03T05:39:33.574Z,1006.23
2018-11-03T05:40:33.542Z,1006.21
2018-11-03T05:41:33.532Z,1006.23
2018-11-03T05:42:33.522Z,1006.17
2018-11-03T05:43:33.477Z,1006.12
2018-11-03T05:44:33.463Z,1006.15
2018-11-03T05:45:33.443Z,1006.15
2018-11-03T05:46:33.595Z,1006.14
2018-11-03T05:47:33.372Z,1006.15
2018-11-03T05:48:33.343Z,1006.14
2018-11-03T05:49:33.330Z,1006.12
2018-11-03T05:50:34.186Z,1006.10
2018-11-03T05:51:35.290Z,1006.13
2018-11-03T05:52:41.056Z,1006.10
2018-11-03T05:53:38.772Z,1006.16
2018-11-03T05:54:33.199Z,1006.19
2018-11-03T05:55:33.180Z,1006.22
2018-11-03T05:56:33.157Z,1006.19
2018-11-03T05:57:33.138Z,1006.27
2018-11-03T05:58:33.112Z,1006.27
2018-11-03T05:59:33.097Z,1006.25
2018-11-03T06:00:33.058Z,1006.25
2018-11-03T06:01:33.061Z,1006.24
2018-11-03T06:02:33.012Z,1006.25
2018-11-03T06:03:33.006Z,1006.26
2018-11-03T06:04:32.961Z,1006.23
2018-11-03T06:05:32.942Z,1006.22
2018-11-03T06:06:32.922Z,1006.18
2018-11-03T06:07:32.888Z,1006.17
2018-11-03T06:08:32.933Z,1006.15
2018-11-03T06:09:32.863Z,1006.15
2018-11-03T06:10:32.814Z,1006.16
2018-11-03T06:11:32.810Z,1006.20
2018-11-03T06:12:32.766Z,1006.24
2018-11-03T06:13:32.744Z,1006.23
2018-11-03T06:14:32.718Z,1006.24
2018-11-03T06:15:32.763Z,1006.21
2018-11-03T06:16:32.695Z,1006.19
2018-11-03T06:17:32.639Z,1006.20
2018-11-03T06:18:32.623Z,1006.22
2018-11-03T06:19:32.607Z,1006.15
2018-11-03T06:20:32.575Z,1006.18
2018-11-03T06:21:32.564Z,1006.17
2018-11-03T06:22:32.596Z,1006.18
2018-11-03T06:23:32.555Z,1006.13
2018-11-03T06:24:32.489Z,1006.15
2018-11-03T06:25:32.473Z,1006.16
2018-11-03T06:26:32.447Z,1006.19
2018-11-03T06:27:32.406Z,1006.15
2018-11-03T06:28:32.377Z,1006.18
2018-11-03T06:29:32.367Z,1006.21
2018-11-03T06:30:32.319Z,1006.22
2018-11-03T06:31:32.303Z,1006.22
2018-11-03T06:32:32.294Z,1006.16
2018-11-03T06:33:32.258Z,1006.16
2018-11-03T06:34:32.234Z,1006.11
2018-11-03T06:35:32.209Z,1006.15
2018-11-03T06:36:32.186Z,1006.15
2018-11-03T06:37:32.160Z,1006.14
2018-11-03T06:38:32.132Z,1006.20
2018-11-03T06:39:32.112Z,1006.19
2018-11-03T06:40:32.087Z,1006.21
2018-11-03T06:41:32.068Z,1006.21
2018-11-03T06:42:32.045Z,1006.23
2018-11-03T06:43:32.041Z,1006.24
2018-11-03T06:44:31.985Z,1006.26
2018-11-03T06:45:31.966Z,1006.30
2018-11-03T06:46:31.951Z,1006.30
2018-11-03T06:47:31.987Z,1006.28
2018-11-03T06:48:31.883Z,1006.32
2018-11-03T06:49:31.864Z,1006.29
2018-11-03T06:50:31.847Z,1006.33
2018-11-03T06:51:31.815Z,1006.36
2018-11-03T06:52:31.789Z,1006.35
2018-11-03T06:53:31.767Z,1006.37
2018-11-03T06:54:31.738Z,1006.36
2018-11-03T06:55:31.721Z,1006.35
2018-11-03T06:56:31.694Z,1006.37
2018-11-03T06:57:31.680Z,1006.40
2018-11-03T06:58:31.670Z,1006.31
2018-11-03T06:59:31.629Z,1006.38
2018-11-03T07:00:31.597Z,1006.37
2018-11-03T07:01:31.572Z,1006.36
2018-11-03T07:02:31.548Z,1006.30
2018-11-03T07:03:31.531Z,1006.29
2018-11-03T07:04:31.495Z,1006.27
2018-11-03T07:05:31.496Z,1006.28
2018-11-03T07:06:31.444Z,1006.26
2018-11-03T07:07:31.418Z,1006.31
2018-11-03T07:08:31.399Z,1006.35
2018-11-03T07:09:31.367Z,1006.37
2018-11-03T07:10:31.344Z,1006.41
2018-11-03T07:11:31.342Z,1006.43
2018-11-03T07:12:31.540Z,1006.43
2018-11-03T07:13:31.293Z,1006.42
2018-11-03T07:14:31.252Z,1006.43
2018-11-03T07:15:31.226Z,1006.45
2018-11-03T07:16:31.203Z,1006.49
2018-11-03T07:17:31.174Z,1006.48
2018-11-03T07:18:31.149Z,1006.48
2018-11-03T07:19:31.129Z,1006.51
2018-11-03T07:20:31.104Z,1006.50
2018-11-03T07:21:31.091Z,1006.51
2018-11-03T07:22:31.056Z,1006.52
2018-11-03T07:23:31.034Z,1006.51
2018-11-03T07:24:31.026Z,1006.52
2018-11-03T07:25:30.982Z,1006.55
2018-11-03T07:26:30.959Z,1006.57
2018-11-03T07:27:30.928Z,1006.56
2018-11-03T07:28:30.905Z,1006.57
2018-11-03T07:29:30.918Z,1006.58
2018-11-03T07:30:30.891Z,1006.55
2018-11-03T07:31:30.838Z,1006.48
2018-11-03T07:32:30.835Z,1006.44
2018-11-03T07:33:30.802Z,1006.42
2018-11-03T07:34:30.767Z,1006.47
2018-11-03T07:35:30.741Z,1006.48
2018-11-03T07:36:30.736Z,1006.56
2018-11-03T07:37:30.693Z,1006.55
2018-11-03T07:38:30.671Z,1006.59
2018-11-03T07:39:30.648Z,1006.58
2018-11-03T07:40:30.618Z,1006.58
2018-11-03T07:41:30.674Z,1006.62
2018-11-03T07:42:30.630Z,1006.62
2018-11-03T07:43:30.548Z,1006.65
2018-11-03T07:44:30.522Z,1006.71
2018-11-03T07:45:30.500Z,1006.71
2018-11-03T07:46:30.484Z,1006.67
2018-11-03T07:47:30.449Z,1006.66
2018-11-03T07:48:30.486Z,1006.63
2018-11-03T07:49:30.503Z,1006.64
2018-11-03T07:50:30.386Z,1006.64
2018-11-03T07:51:30.360Z,1006.62
2018-11-03T07:52:30.325Z,1006.70
2018-11-03T07:53:30.308Z,1006.65
2018-11-03T07:54:30.311Z,1006.66
2018-11-03T07:55:30.257Z,1006.66
2018-11-03T07:56:30.239Z,1006.65
2018-11-03T07:57:30.255Z,1006.64
2018-11-03T07:58:30.197Z,1006.60
2018-11-03T07:59:30.175Z,1006.59
2018-11-03T08:00:30.184Z,1006.59
2018-11-03T08:01:30.120Z,1006.63
2018-11-03T08:02:30.104Z,1006.62
2018-11-03T08:03:30.081Z,1006.61
2018-11-03T08:04:30.053Z,1006.61
2018-11-03T08:05:30.034Z,1006.58
2018-11-03T08:06:30.023Z,1006.60
2018-11-03T08:07:29.982Z,1006.59
2018-11-03T08:08:29.967Z,1006.60
2018-11-03T08:09:29.941Z,1006.59
2018-11-03T08:10:29.929Z,1006.61
2018-11-03T08:11:29.909Z,1006.58
2018-11-03T08:12:29.877Z,1006.58
2018-11-03T08:13:29.858Z,1006.54
2018-11-03T08:14:29.834Z,1006.50
2018-11-03T08:15:29.843Z,1006.61
2018-11-03T08:16:29.786Z,1006.59
2018-11-03T08:17:29.768Z,1006.63
2018-11-03T08:18:29.744Z,1006.65
2018-11-03T08:19:29.730Z,1006.62
2018-11-03T08:20:29.706Z,1006.63
2018-11-03T08:21:29.723Z,1006.62
2018-11-03T08:22:29.680Z,1006.57
2018-11-03T08:23:29.643Z,1006.56
2018-11-03T08:24:29.621Z,1006.56
2018-11-03T08:25:29.598Z,1006.56
2018-11-03T08:26:29.572Z,1006.55
2018-11-03T08:27:29.554Z,1006.59
2018-11-03T08:28:29.529Z,1006.58
2018-11-03T08:29:29.518Z,1006.59
2018-11-03T08:30:29.489Z,1006.60
2018-11-03T08:31:29.555Z,1006.58
2018-11-03T08:32:29.451Z,1006.62
2018-11-03T08:33:29.431Z,1006.57
2018-11-03T08:34:29.401Z,1006.58
2018-11-03T08:35:29.389Z,1006.60
2018-11-03T08:36:29.363Z,1006.61
2018-11-03T08:37:29.341Z,1006.63
2018-11-03T08:38:29.315Z,1006.62
2018-11-03T08:39:29.332Z,1006.61
2018-11-03T08:40:29.274Z,1006.63
2018-11-03T08:41:29.258Z,1006.62
2018-11-03T08:42:29.238Z,1006.62
2018-11-03T08:43:29.218Z,1006.64
2018-11-03T08:44:29.194Z,1006.59
2018-11-03T08:45:29.188Z,1006.62
2018-11-03T08:46:29.163Z,1006.62
2018-11-03T08:47:29.141Z,1006.63
2018-11-03T08:48:29.123Z,1006.61
2018-11-03T08:49:29.144Z,1006.62
2018-11-03T08:50:29.067Z,1006.62
2018-11-03T08:51:29.045Z,1006.63
2018-11-03T08:52:29.031Z,1006.62
2018-11-03T08:53:29.009Z,1006.62
2018-11-03T08:54:28.990Z,1006.59
2018-11-03T08:55:28.961Z,1006.59
2018-11-03T08:56:28.942Z,1006.61
2018-11-03T08:57:28.928Z,1006.56
2018-11-03T08:58:28.907Z,1006.56
2018-11-03T08:59:28.917Z,1006.55
2018-11-03T09:00:28.894Z,1006.55
2018-11-03T09:01:28.836Z,1006.54
2018-11-03T09:02:28.818Z,1006.57
2018-11-03T09:03:28.807Z,1006.56
2018-11-03T09:04:28.777Z,1006.54
2018-11-03T09:05:28.759Z,1006.52
2018-11-03T09:06:28.768Z,1006.49
2018-11-03T09:07:28.712Z,1006.47
2018-11-03T09:08:28.694Z,1006.50
2018-11-03T09:09:28.672Z,1006.51
2018-11-03T09:10:28.653Z,1006.49
2018-11-03T09:11:28.635Z,1006.49
2018-11-03T09:12:28.606Z,1006.48
2018-11-03T09:13:28.586Z,1006.45
2018-11-03T09:14:28.579Z,1006.43
2018-11-03T09:15:28.544Z,1006.44
2018-11-03T09:16:28.531Z,1006.44
2018-11-03T09:17:28.503Z,1006.44
2018-11-03T09:18:28.491Z,1006.44
2018-11-03T09:19:28.460Z,1006.46
2018-11-03T09:20:28.445Z,1006.47
2018-11-03T09:21:28.461Z,1006.51
2018-11-03T09:22:28.409Z,1006.46
2018-11-03T09:23:28.384Z,1006.49
2018-11-03T09:24:28.360Z,1006.46
2018-11-03T09:25:28.329Z,1006.46
2018-11-03T09:26:28.319Z,1006.49
2018-11-03T09:27:28.301Z,1006.48
2018-11-03T09:28:28.271Z,1006.47
2018-11-03T09:29:28.246Z,1006.48
2018-11-03T09:30:28.225Z,1006.43
2018-11-03T09:31:28.212Z,1006.42
2018-11-03T09:32:28.190Z,1006.40
2018-11-03T09:33:28.168Z,1006.40
2018-11-03T09:34:28.193Z,1006.39
2018-11-03T09:35:28.132Z,1006.41
2018-11-03T09:36:28.110Z,1006.42
2018-11-03T09:37:28.115Z,1006.42
2018-11-03T09:38:28.078Z,1006.48
2018-11-03T09:39:28.046Z,1006.47
2018-11-03T09:40:28.022Z,1006.45
2018-11-03T09:41:28.006Z,1006.44
2018-11-03T09:42:27.990Z,1006.46
2018-11-03T09:43:28.005Z,1006.47
2018-11-03T09:44:27.955Z,1006.45
2018-11-03T09:45:27.925Z,1006.40
2018-11-03T09:46:27.912Z,1006.44
2018-11-03T09:47:27.906Z,1006.45
2018-11-03T09:48:27.877Z,1006.48
2018-11-03T09:49:27.853Z,1006.49
2018-11-03T09:50:27.874Z,1006.52
2018-11-03T09:51:27.817Z,1006.51
2018-11-03T09:52:27.795Z,1006.48
2018-11-03T09:53:27.779Z,1006.48
2018-11-03T09:54:27.769Z,1006.45
2018-11-03T09:55:27.741Z,1006.40
2018-11-03T09:56:27.759Z,1006.43
2018-11-03T09:57:27.738Z,1006.47
2018-11-03T09:58:27.698Z,1006.46
2018-11-03T09:59:27.675Z,1006.51
2018-11-03T10:00:27.648Z,1006.51
2018-11-03T10:01:27.632Z,1006.47
2018-11-03T10:02:27.619Z,1006.49
2018-11-03T10:03:27.597Z,1006.48
2018-11-03T10:04:27.588Z,1006.52
2018-11-03T10:05:27.568Z,1006.53
2018-11-03T10:06:27.615Z,1006.50
2018-11-03T10:07:27.530Z,1006.49
2018-11-03T10:08:27.520Z,1006.51
2018-11-03T10:09:27.504Z,1006.54
2018-11-03T10:10:27.491Z,1006.55
2018-11-03T10:11:27.465Z,1006.56
2018-11-03T10:12:27.487Z,1006.53
2018-11-03T10:13:27.432Z,1006.52
2018-11-03T10:14:27.419Z,1006.50
2018-11-03T10:15:27.400Z,1006.49
2018-11-03T10:16:27.411Z,1006.46
2018-11-03T10:17:27.371Z,1006.43
2018-11-03T10:18:27.359Z,1006.37
2018-11-03T10:19:27.339Z,1006.34
2018-11-03T10:20:27.323Z,1006.30
2018-11-03T10:21:27.304Z,1006.30
2018-11-03T10:22:27.356Z,1006.27
2018-11-03T10:23:27.269Z,1006.31
2018-11-03T10:24:27.262Z,1006.33
2018-11-03T10:25:27.243Z,1006.34
2018-11-03T10:26:27.225Z,1006.34
2018-11-03T10:27:27.222Z,1006.33
2018-11-03T10:28:27.202Z,1006.29
2018-11-03T10:29:27.177Z,1006.22
2018-11-03T10:30:27.164Z,1006.24
2018-11-03T10:31:27.170Z,1006.22
2018-11-03T10:32:27.135Z,1006.20
2018-11-03T10:33:27.201Z,1006.22
2018-11-03T10:34:27.103Z,1006.22
2018-11-03T10:35:27.139Z,1006.22
2018-11-03T10:36:27.081Z,1006.14
2018-11-03T10:37:27.062Z,1006.10
2018-11-03T10:38:27.065Z,1006.09
2018-11-03T10:39:27.035Z,1006.07
2018-11-03T10:40:27.068Z,1006.03
2018-11-03T10:41:27.009Z,1005.97
2018-11-03T10:42:27.004Z,1006.04
2018-11-03T10:43:27.083Z,1006.02
2018-11-03T10:44:26.958Z,1005.99
2018-11-03T10:45:26.968Z,1005.98
2018-11-03T10:46:27.043Z,1005.96
2018-11-03T10:47:26.920Z,1005.90
2018-11-03T10:48:26.894Z,1005.90
2018-11-03T10:49:26.875Z,1005.89
2018-11-03T10:50:26.865Z,1005.90
2018-11-03T10:51:26.859Z,1005.91
2018-11-03T10:52:26.849Z,1005.92
2018-11-03T10:53:26.856Z,1005.90
2018-11-03T10:54:26.809Z,1005.87
2018-11-03T10:55:26.796Z,1005.85
2018-11-03T10:56:26.794Z,1005.81
2018-11-03T10:57:26.774Z,1005.82
2018-11-03T10:58:26.767Z,1005.84
2018-11-03T10:59:26.741Z,1005.84
2018-11-03T11:00:26.726Z,1005.83
2018-11-03T11:01:26.716Z,1005.85
2018-11-03T11:02:26.725Z,1005.89
2018-11-03T11:03:26.738Z,1005.87
2018-11-03T11:04:26.777Z,1005.84
2018-11-03T11:05:26.671Z,1005.88
2018-11-03T11:06:26.645Z,1005.88
2018-11-03T11:07:26.681Z,1005.91
2018-11-03T11:08:26.632Z,1005.87
2018-11-03T11:09:26.635Z,1005.88
2018-11-03T11:10:26.593Z,1005.82
2018-11-03T11:11:26.600Z,1005.79
2018-11-03T11:12:26.574Z,1005.78
2018-11-03T11:13:26.552Z,1005.80
2018-11-03T11:14:26.575Z,1005.74
2018-11-03T11:15:26.530Z,1005.75
2018-11-03T11:16:26.618Z,1005.77
2018-11-03T11:17:26.516Z,1005.77
2018-11-03T11:18:26.494Z,1005.79
2018-11-03T11:19:26.488Z,1005.82
2018-11-03T11:20:26.466Z,1005.81
2018-11-03T11:21:26.452Z,1005.84
2018-11-03T11:22:26.446Z,1005.79
2018-11-03T11:23:26.497Z,1005.79
2018-11-03T11:24:26.446Z,1005.79
2018-11-03T11:25:26.506Z,1005.76
2018-11-03T11:26:26.410Z,1005.73
2018-11-03T11:27:26.381Z,1005.74
2018-11-03T11:28:26.869Z,1005.73
2018-11-03T11:29:26.365Z,1005.76
2018-11-03T11:30:26.340Z,1005.70
2018-11-03T11:31:26.449Z,1005.71
2018-11-03T11:32:26.391Z,1005.65
2018-11-03T11:33:26.301Z,1005.64
2018-11-03T11:34:26.292Z,1005.65
2018-11-03T11:35:26.276Z,1005.63
2018-11-03T11:36:26.263Z,1005.61
2018-11-03T11:37:26.289Z,1005.63
2018-11-03T11:38:26.267Z,1005.57
2018-11-03T11:39:26.234Z,1005.55
2018-11-03T11:40:26.213Z,1005.54
2018-11-03T11:41:26.200Z,1005.50
2018-11-03T11:42:26.197Z,1005.48
2018-11-03T11:43:26.191Z,1005.48
2018-11-03T11:44:26.171Z,1005.48
2018-11-03T11:45:26.161Z,1005.46
2018-11-03T11:46:26.155Z,1005.42
2018-11-03T11:47:26.132Z,1005.46
2018-11-03T11:48:26.126Z,1005.46
2018-11-03T11:49:26.119Z,1005.43
2018-11-03T11:50:26.104Z,1005.40
2018-11-03T11:51:26.088Z,1005.37
2018-11-03T11:52:26.078Z,1005.37
2018-11-03T11:53:26.065Z,1005.39
2018-11-03T11:54:26.059Z,1005.33
2018-11-03T11:55:26.056Z,1005.28
2018-11-03T11:56:26.050Z,1005.31
2018-11-03T11:57:26.024Z,1005.28
2018-11-03T11:58:26.012Z,1005.30
2018-11-03T11:59:26.010Z,1005.31
2018-11-03T12:00:26.097Z,1005.30
2018-11-03T12:01:25.979Z,1005.27
2018-11-03T12:02:26.112Z,1005.29
2018-11-03T12:03:25.950Z,1005.27
2018-11-03T12:04:25.943Z,1005.30
2018-11-03T12:05:25.930Z,1005.33